Terminal Aerodrome Forecast
Issued by NWS

Home | Current Version | Previous Version | Text Only | Print | Product List | Glossary On
Versions: 1 2 3 4 5 6 7 8 9 10 11 12 13
000
FTAK31 PAJN 262322
TAFAPG
TAF
PAPG 262322Z 2700/2724 05009KT P6SM SCT060
      TEMPO 2700/2704 BKN060
     FM270600 21004KT P6SM SCT070
     FM271600 06005KT P6SM SCT070
      AMD LTD TO CLD VIS AND WIND 2706/2715=

USA.gov is the U.S. government's official web portal to all federal, state and local government web resources and services.